createdAt,value
2022-09-07T00:01:44.495Z,48.08
2022-09-07T00:04:30.411Z,48.08
2022-09-07T00:07:16.261Z,48.27
2022-09-07T00:10:02.225Z,48.21
2022-09-07T00:12:48.287Z,48.46
2022-09-07T00:15:40.703Z,48.37
2022-09-07T00:18:26.689Z,48.44
2022-09-07T00:21:14.150Z,48.55
2022-09-07T00:24:00.383Z,48.65
2022-09-07T00:26:46.500Z,48.60
2022-09-07T00:29:32.316Z,48.49
2022-09-07T00:32:18.323Z,48.72
2022-09-07T00:35:04.585Z,48.61
2022-09-07T00:37:50.352Z,48.80
2022-09-07T00:40:36.490Z,48.83
2022-09-07T00:43:44.113Z,48.91
2022-09-07T00:46:34.097Z,49.24
2022-09-07T00:49:22.827Z,49.12
2022-09-07T00:52:09.367Z,48.93
2022-09-07T00:54:59.115Z,48.88
2022-09-07T00:57:52.263Z,49.13
2022-09-07T01:00:40.282Z,49.26
2022-09-07T01:03:30.448Z,49.17
2022-09-07T01:06:22.944Z,49.13
2022-09-07T01:09:17.389Z,49.36
2022-09-07T01:12:05.019Z,49.51
2022-09-07T01:14:52.385Z,49.39
2022-09-07T01:18:21.672Z,49.64
2022-09-07T01:21:10.253Z,49.77
2022-09-07T01:24:34.080Z,49.65
2022-09-07T01:27:41.888Z,49.71
2022-09-07T01:30:29.760Z,49.82
2022-09-07T01:33:33.608Z,49.78
2022-09-07T01:36:36.112Z,49.97
2022-09-07T01:39:26.780Z,49.75
2022-09-07T01:42:16.008Z,49.81
2022-09-07T01:45:05.027Z,49.92
2022-09-07T01:47:54.525Z,49.83
2022-09-07T01:50:48.661Z,49.86
2022-09-07T01:53:39.852Z,49.91
2022-09-07T01:56:38.504Z,50.14
2022-09-07T01:59:29.719Z,49.96
2022-09-07T02:02:19.499Z,50.05
2022-09-07T02:05:30.679Z,50.25
2022-09-07T02:08:40.620Z,50.21
2022-09-07T02:11:36.832Z,50.23
2022-09-07T02:14:28.936Z,50.20
2022-09-07T02:17:22.965Z,50.26
2022-09-07T02:20:12.691Z,50.19
2022-09-07T02:23:01.144Z,50.30
2022-09-07T02:25:53.715Z,50.30
2022-09-07T02:28:39.917Z,50.60
2022-09-07T02:31:26.292Z,50.35
2022-09-07T02:34:12.662Z,50.50
2022-09-07T02:37:02.027Z,50.39
2022-09-07T02:39:49.598Z,50.59
2022-09-07T02:42:36.590Z,50.42
2022-09-07T02:45:22.905Z,50.59
2022-09-07T02:48:31.106Z,50.68
2022-09-07T02:51:20.322Z,50.66
2022-09-07T02:54:16.008Z,50.70
2022-09-07T02:57:17.959Z,50.86
2022-09-07T03:00:09.953Z,50.82
2022-09-07T03:03:32.313Z,51.05
2022-09-07T03:06:55.665Z,50.87
2022-09-07T03:09:48.272Z,50.89
2022-09-07T03:12:41.743Z,50.88
2022-09-07T03:15:29.193Z,51.00
2022-09-07T03:18:15.635Z,51.07
2022-09-07T03:21:02.027Z,51.22
2022-09-07T03:23:51.688Z,51.05
2022-09-07T03:26:45.021Z,51.18
2022-09-07T03:29:31.631Z,50.90
2022-09-07T03:32:18.121Z,50.96
2022-09-07T03:35:06.906Z,51.24
2022-09-07T03:37:53.273Z,51.18
2022-09-07T03:40:39.634Z,51.12
2022-09-07T03:43:26.445Z,51.25
2022-09-07T03:46:15.098Z,51.21
2022-09-07T03:49:01.413Z,51.32
2022-09-07T03:51:47.843Z,51.48
2022-09-07T03:54:37.825Z,51.33
2022-09-07T03:57:25.631Z,51.38
2022-09-07T04:00:12.464Z,51.48
2022-09-07T04:02:58.761Z,51.32
2022-09-07T04:05:45.228Z,51.63
2022-09-07T04:08:33.967Z,51.38
2022-09-07T04:11:20.491Z,51.56
2022-09-07T04:14:07.766Z,51.71
2022-09-07T04:16:54.264Z,51.39
2022-09-07T04:19:40.588Z,51.48
2022-09-07T04:22:27.058Z,51.49
2022-09-07T04:25:13.344Z,51.81
2022-09-07T04:27:59.626Z,51.68
2022-09-07T04:30:46.353Z,51.57
2022-09-07T04:33:33.427Z,51.76
2022-09-07T04:36:20.444Z,51.93
2022-09-07T04:39:06.445Z,51.89
2022-09-07T04:41:52.913Z,51.88
2022-09-07T04:44:39.234Z,51.96
2022-09-07T04:47:25.690Z,52.02
2022-09-07T04:50:12.050Z,52.52
2022-09-07T04:52:58.285Z,52.11
2022-09-07T04:55:44.799Z,52.31
2022-09-07T04:58:31.314Z,52.19
2022-09-07T05:01:20.106Z,52.32
2022-09-07T05:04:05.972Z,52.22
2022-09-07T05:06:53.730Z,52.50
2022-09-07T05:09:39.605Z,52.27
2022-09-07T05:12:25.612Z,52.38
2022-09-07T05:15:11.635Z,52.04
2022-09-07T05:17:58.470Z,52.36
2022-09-07T05:20:44.678Z,52.53
2022-09-07T05:23:30.543Z,52.54
2022-09-07T05:26:16.513Z,52.49
2022-09-07T05:32:11.524Z,52.73
2022-09-07T05:34:57.389Z,52.76
2022-09-07T05:37:43.229Z,52.91
2022-09-07T05:40:31.873Z,53.08
2022-09-07T05:43:18.042Z,52.94
2022-09-07T05:46:04.353Z,52.90
2022-09-07T05:48:50.249Z,53.02
2022-09-07T05:51:37.303Z,53.07
2022-09-07T05:54:23.248Z,53.37
2022-09-07T05:57:11.665Z,53.10
2022-09-07T05:59:57.709Z,52.85
2022-09-07T06:02:44.298Z,53.10
2022-09-07T06:05:30.471Z,53.33
2022-09-07T06:08:17.733Z,53.33
2022-09-07T06:11:11.425Z,53.28
2022-09-07T06:13:57.558Z,53.37
2022-09-07T06:16:43.883Z,53.31
2022-09-07T06:19:29.855Z,53.44
2022-09-07T06:22:15.781Z,53.36
2022-09-07T06:25:02.110Z,53.34
2022-09-07T06:27:49.424Z,53.65
2022-09-07T06:30:35.609Z,53.39
2022-09-07T06:33:22.125Z,53.55
2022-09-07T06:36:28.918Z,53.70
2022-09-07T06:39:15.676Z,53.27
2022-09-07T06:42:02.308Z,53.85
2022-09-07T06:44:50.096Z,53.56
2022-09-07T06:47:36.973Z,53.89
2022-09-07T06:50:23.405Z,53.81
2022-09-07T06:56:17.913Z,53.83
2022-09-07T06:59:04.179Z,53.64
2022-09-07T07:01:50.673Z,53.67
2022-09-07T07:04:40.824Z,53.63
2022-09-07T07:07:27.818Z,53.75
2022-09-07T07:10:14.187Z,53.67
2022-09-07T07:13:00.568Z,53.67
2022-09-07T07:15:47.953Z,53.58
2022-09-07T07:18:34.508Z,53.94
2022-09-07T07:21:20.780Z,53.78
2022-09-07T07:24:08.291Z,53.69
2022-09-07T07:26:54.467Z,53.67
2022-09-07T07:29:40.810Z,53.80
2022-09-07T07:32:27.672Z,53.51
2022-09-07T07:35:14.394Z,53.73
2022-09-07T07:44:14.616Z,53.66
2022-09-07T07:47:00.948Z,53.78
2022-09-07T07:49:47.208Z,53.89
2022-09-07T07:55:45.396Z,54.40
2022-09-07T07:58:33.814Z,54.24
2022-09-07T08:01:19.849Z,53.83
2022-09-07T08:04:05.952Z,53.63
2022-09-07T08:06:52.466Z,53.57
2022-09-07T08:09:43.444Z,53.75
2022-09-07T08:12:31.421Z,53.80
2022-09-07T08:15:17.421Z,53.55
2022-09-07T08:18:03.940Z,53.52
2022-09-07T08:20:49.984Z,53.36
2022-09-07T08:23:36.156Z,53.63
2022-09-07T08:26:22.210Z,54.06
2022-09-07T08:29:08.258Z,53.69
2022-09-07T08:31:55.058Z,53.62
2022-09-07T08:34:40.816Z,53.36
2022-09-07T08:37:27.022Z,53.92
2022-09-07T08:40:17.946Z,53.15
2022-09-07T08:43:13.871Z,53.09
2022-09-07T08:46:06.570Z,52.91
2022-09-07T08:48:52.724Z,53.61
2022-09-07T08:51:43.643Z,52.66
2022-09-07T08:54:30.227Z,52.78
2022-09-07T08:57:21.306Z,52.65
2022-09-07T09:00:13.975Z,52.40
2022-09-07T09:06:35.441Z,52.43
2022-09-07T09:09:27.379Z,50.73
2022-09-07T09:12:19.866Z,52.28
2022-09-07T09:15:14.910Z,52.92
2022-09-07T09:18:21.915Z,52.22
2022-09-07T09:21:15.206Z,52.17
2022-09-07T09:24:11.958Z,51.07
2022-09-07T09:26:58.232Z,51.57
2022-09-07T09:29:45.924Z,51.11
2022-09-07T09:32:42.986Z,50.80
2022-09-07T09:35:33.674Z,51.06
2022-09-07T09:38:40.536Z,49.14
2022-09-07T09:41:36.006Z,50.93
2022-09-07T09:44:23.066Z,50.96
2022-09-07T09:47:31.054Z,51.26
2022-09-07T09:53:55.557Z,50.59
2022-09-07T09:56:43.900Z,50.79
2022-09-07T10:05:46.754Z,50.65
2022-09-07T10:08:33.423Z,50.59
2022-09-07T10:11:19.837Z,50.38
2022-09-07T10:14:24.350Z,50.56
2022-09-07T10:17:24.999Z,50.26
2022-09-07T10:20:16.599Z,50.14
2022-09-07T10:23:04.868Z,50.07
2022-09-07T10:25:51.283Z,50.08
2022-09-07T10:32:05.874Z,49.79
2022-09-07T10:34:54.901Z,49.83
2022-09-07T10:38:02.461Z,49.79
2022-09-07T10:41:07.393Z,49.75
2022-09-07T10:43:53.784Z,49.87
2022-09-07T10:46:59.862Z,49.46
2022-09-07T10:50:25.227Z,49.56
2022-09-07T10:53:42.273Z,47.70
2022-09-07T10:56:33.349Z,49.46
2022-09-07T10:59:22.441Z,49.32
2022-09-07T11:02:19.783Z,49.02
2022-09-07T11:05:36.038Z,49.32
2022-09-07T11:09:15.098Z,48.80
2022-09-07T11:12:05.484Z,48.92
2022-09-07T11:15:13.373Z,48.24
2022-09-07T11:18:14.717Z,48.79
2022-09-07T11:21:04.210Z,48.61
2022-09-07T11:23:52.502Z,48.36
2022-09-07T11:26:54.291Z,48.27
2022-09-07T11:29:49.078Z,46.76
2022-09-07T11:32:48.963Z,47.89
2022-09-07T11:35:48.935Z,46.61
2022-09-07T11:38:39.087Z,48.36
2022-09-07T11:41:28.331Z,47.95
2022-09-07T11:44:18.891Z,47.50
2022-09-07T11:47:12.213Z,47.81
2022-09-07T11:49:59.520Z,48.10
2022-09-07T11:52:58.648Z,43.37
2022-09-07T11:55:47.861Z,47.04
2022-09-07T11:58:49.694Z,46.80
2022-09-07T12:02:17.894Z,46.85
2022-09-07T12:05:34.343Z,46.37
2022-09-07T12:08:39.399Z,46.58
2022-09-07T12:11:43.738Z,44.53
2022-09-07T12:14:38.941Z,45.88
2022-09-07T12:17:50.062Z,45.73
2022-09-07T12:20:41.212Z,45.49
2022-09-07T12:23:31.521Z,45.74
2022-09-07T12:26:33.052Z,44.85
2022-09-07T12:29:21.407Z,45.67
2022-09-07T12:35:28.226Z,43.22
2022-09-07T12:38:14.004Z,45.38
2022-09-07T12:41:22.627Z,45.15
2022-09-07T12:44:15.587Z,44.84
2022-09-07T12:47:29.192Z,44.58
2022-09-07T12:50:25.256Z,44.67
2022-09-07T12:53:14.333Z,44.43
2022-09-07T12:56:23.978Z,44.37
2022-09-07T12:59:29.436Z,44.59
2022-09-07T13:02:46.427Z,42.52
2022-09-07T13:06:00.589Z,44.37
2022-09-07T13:09:04.922Z,43.63
2022-09-07T13:11:51.494Z,43.74
2022-09-07T13:14:38.721Z,43.13
2022-09-07T13:17:35.041Z,42.27
2022-09-07T13:20:23.702Z,43.01
2022-09-07T13:23:21.014Z,43.22
2022-09-07T13:26:52.257Z,39.97
2022-09-07T13:30:03.870Z,42.80
2022-09-07T13:33:09.713Z,42.91
2022-09-07T13:36:08.774Z,42.29
2022-09-07T13:39:08.490Z,42.62
2022-09-07T13:42:01.052Z,42.00
2022-09-07T13:45:42.781Z,42.37
2022-09-07T13:49:04.659Z,37.43
2022-09-07T13:55:37.297Z,40.69
2022-09-07T13:58:26.282Z,41.18
2022-09-07T14:01:17.188Z,37.69
2022-09-07T14:04:07.562Z,40.89
2022-09-07T14:07:09.472Z,40.45
2022-09-07T14:10:18.686Z,40.74
2022-09-07T14:13:12.063Z,40.07
2022-09-07T14:15:58.008Z,40.30
2022-09-07T14:18:44.530Z,40.09
2022-09-07T14:21:30.460Z,40.01
2022-09-07T14:24:31.127Z,39.72
2022-09-07T14:27:43.187Z,39.01
2022-09-07T14:30:33.293Z,39.18
2022-09-07T14:33:20.412Z,38.72
2022-09-07T14:36:29.456Z,38.96
2022-09-07T14:39:13.915Z,38.52
2022-09-07T14:42:03.413Z,38.33
2022-09-07T14:44:50.233Z,38.35
2022-09-07T14:47:36.331Z,38.63
2022-09-07T14:50:39.178Z,37.06
2022-09-07T14:53:34.865Z,37.38
2022-09-07T14:56:23.630Z,36.97
2022-09-07T14:59:44.483Z,37.48
2022-09-07T15:02:36.197Z,37.20
2022-09-07T15:05:25.767Z,37.30
2022-09-07T15:08:20.605Z,37.31
2022-09-07T15:11:34.889Z,37.32
2022-09-07T15:14:21.109Z,37.08
2022-09-07T15:20:44.355Z,36.15
2022-09-07T15:23:30.089Z,36.60
2022-09-07T15:29:23.130Z,36.60
2022-09-07T15:32:10.441Z,36.01
2022-09-07T15:34:56.561Z,36.00
2022-09-07T15:41:20.762Z,36.05
2022-09-07T15:44:00.269Z,36.18
2022-09-07T15:49:53.923Z,36.09
2022-09-07T15:52:40.102Z,36.04
2022-09-07T15:55:26.069Z,35.70
2022-09-07T15:58:13.048Z,35.34
2022-09-07T16:04:13.153Z,35.36
2022-09-07T16:07:01.538Z,35.72
2022-09-07T16:09:48.848Z,35.53
2022-09-07T16:15:46.325Z,35.47
2022-09-07T16:18:34.004Z,35.34
2022-09-07T16:21:26.055Z,35.37
2022-09-07T16:24:12.624Z,35.62
2022-09-07T16:26:58.865Z,35.46
2022-09-07T16:29:45.191Z,35.61
2022-09-07T16:32:46.691Z,35.98
2022-09-07T16:35:33.137Z,36.13
2022-09-07T16:41:29.112Z,36.02
2022-09-07T16:44:16.356Z,36.27
2022-09-07T16:47:02.600Z,36.54
2022-09-07T16:49:48.893Z,36.47
2022-09-07T16:52:34.848Z,36.80
2022-09-07T16:55:20.827Z,36.61
2022-09-07T17:01:18.449Z,37.19
2022-09-07T17:04:09.877Z,37.21
2022-09-07T17:06:56.586Z,37.33
2022-09-07T17:09:42.918Z,37.21
2022-09-07T17:12:29.129Z,37.23
2022-09-07T17:15:15.276Z,37.10
2022-09-07T17:18:01.649Z,37.42
2022-09-07T17:20:58.607Z,37.87
2022-09-07T17:23:53.917Z,37.79
2022-09-07T17:26:42.775Z,37.92
2022-09-07T17:29:30.831Z,37.80
2022-09-07T17:32:24.844Z,38.07
2022-09-07T17:35:11.665Z,38.17
2022-09-07T17:37:57.924Z,38.38
2022-09-07T17:40:44.124Z,38.44
2022-09-07T17:43:46.052Z,38.52
2022-09-07T17:46:33.106Z,38.94
2022-09-07T17:49:19.062Z,38.80
2022-09-07T17:52:05.528Z,39.13
2022-09-07T17:54:55.400Z,38.96
2022-09-07T17:57:41.592Z,38.83
2022-09-07T18:00:27.623Z,39.19
2022-09-07T18:03:14.366Z,39.35
2022-09-07T18:06:00.821Z,39.62
2022-09-07T18:08:47.005Z,39.67
2022-09-07T18:11:49.907Z,39.84
2022-09-07T18:14:36.363Z,40.05
2022-09-07T18:17:22.283Z,39.88
2022-09-07T18:20:09.510Z,40.12
2022-09-07T18:22:56.077Z,40.27
2022-09-07T18:25:43.573Z,40.31
2022-09-07T18:31:36.108Z,40.67
2022-09-07T18:34:22.321Z,40.97
2022-09-07T18:37:09.273Z,40.90
2022-09-07T18:39:55.748Z,40.82
2022-09-07T18:42:42.226Z,41.02
2022-09-07T18:45:28.536Z,41.35
2022-09-07T18:48:14.979Z,41.18
2022-09-07T18:51:01.940Z,41.51
2022-09-07T18:53:48.330Z,41.75
2022-09-07T18:56:34.677Z,41.73
2022-09-07T18:59:20.848Z,41.82
2022-09-07T19:02:08.498Z,42.01
2022-09-07T19:08:03.582Z,42.03
2022-09-07T19:10:49.840Z,42.03
2022-09-07T19:13:36.378Z,42.47
2022-09-07T19:16:22.949Z,42.71
2022-09-07T19:19:11.773Z,42.57
2022-09-07T19:21:58.383Z,42.69
2022-09-07T19:24:44.545Z,42.96
2022-09-07T19:27:33.014Z,43.10
2022-09-07T19:30:19.137Z,43.09
2022-09-07T19:33:09.888Z,43.25
2022-09-07T19:35:56.215Z,43.21
2022-09-07T19:38:42.449Z,43.39
2022-09-07T19:41:28.777Z,43.26
2022-09-07T19:44:14.926Z,43.58
2022-09-07T19:47:01.048Z,43.88
2022-09-07T19:49:47.212Z,43.77
2022-09-07T19:52:33.294Z,43.55
2022-09-07T19:55:19.329Z,43.85
2022-09-07T19:58:05.710Z,44.07
2022-09-07T20:00:51.687Z,43.96
2022-09-07T20:03:41.257Z,44.35
2022-09-07T20:06:27.917Z,44.39
2022-09-07T20:09:14.863Z,44.36
2022-09-07T20:12:02.821Z,44.55
2022-09-07T20:14:48.593Z,44.75
2022-09-07T20:17:35.629Z,44.46
2022-09-07T20:20:22.195Z,44.73
2022-09-07T20:23:08.629Z,44.93
2022-09-07T20:25:59.022Z,44.92
2022-09-07T20:28:46.282Z,45.11
2022-09-07T20:31:32.589Z,44.95
2022-09-07T20:34:18.584Z,44.96
2022-09-07T20:37:05.381Z,45.01
2022-09-07T20:39:51.701Z,45.27
2022-09-07T20:42:39.408Z,45.52
2022-09-07T20:45:29.757Z,45.74
2022-09-07T20:48:17.661Z,45.88
2022-09-07T20:51:04.627Z,45.83
2022-09-07T20:53:50.835Z,45.71
2022-09-07T20:56:36.978Z,46.19
2022-09-07T20:59:23.249Z,45.85
2022-09-07T21:02:10.179Z,46.12
2022-09-07T21:04:56.283Z,46.34
2022-09-07T21:07:42.195Z,46.45
2022-09-07T21:10:28.152Z,46.47
2022-09-07T21:13:14.645Z,46.56
2022-09-07T21:16:27.657Z,47.01
2022-09-07T21:19:13.882Z,46.89
2022-09-07T21:21:59.797Z,46.98
2022-09-07T21:24:45.785Z,46.97
2022-09-07T21:27:38.614Z,47.08
2022-09-07T21:30:25.099Z,47.23
2022-09-07T21:33:11.058Z,47.22
2022-09-07T21:36:04.203Z,47.46
2022-09-07T21:39:21.620Z,47.36
2022-09-07T21:42:07.510Z,47.81
2022-09-07T21:44:53.320Z,47.46
2022-09-07T21:47:39.173Z,47.65
2022-09-07T21:50:25.413Z,47.86
2022-09-07T21:53:12.713Z,47.95
2022-09-07T21:56:04.791Z,47.89
2022-09-07T21:58:58.571Z,48.01
2022-09-07T22:01:44.789Z,48.07
2022-09-07T22:04:31.142Z,48.05
2022-09-07T22:07:17.083Z,48.16
2022-09-07T22:10:03.229Z,48.07
2022-09-07T22:12:49.213Z,48.28
2022-09-07T22:15:39.733Z,48.34
2022-09-07T22:18:25.842Z,48.46
2022-09-07T22:21:17.634Z,48.48
2022-09-07T22:24:05.943Z,48.44
2022-09-07T22:26:52.922Z,48.52
2022-09-07T22:29:38.862Z,48.68
2022-09-07T22:32:24.619Z,48.76
2022-09-07T22:35:10.428Z,48.98
2022-09-07T22:37:56.500Z,48.95
2022-09-07T22:40:42.354Z,49.00
2022-09-07T22:43:28.378Z,48.87
2022-09-07T22:46:14.953Z,49.17
2022-09-07T22:49:00.891Z,49.03
2022-09-07T22:51:47.208Z,49.42
2022-09-07T22:54:33.010Z,49.16
2022-09-07T22:57:19.051Z,49.17
2022-09-07T23:00:06.308Z,49.46
2022-09-07T23:02:52.274Z,49.44
2022-09-07T23:05:38.169Z,49.66
2022-09-07T23:08:25.289Z,49.55
2022-09-07T23:11:11.179Z,49.71
2022-09-07T23:13:58.851Z,49.82
2022-09-07T23:16:45.204Z,49.75
2022-09-07T23:22:16.694Z,50.10
2022-09-07T23:25:03.361Z,50.00
2022-09-07T23:27:49.528Z,50.08
2022-09-07T23:30:35.770Z,51.90
2022-09-07T23:33:22.056Z,50.77
2022-09-07T23:36:08.392Z,50.71
2022-09-07T23:38:56.241Z,50.61
2022-09-07T23:41:42.523Z,50.57
2022-09-07T23:44:28.313Z,50.66
2022-09-07T23:47:15.257Z,50.82
2022-09-07T23:50:01.171Z,50.66
2022-09-07T23:52:47.271Z,50.70
2022-09-07T23:55:33.561Z,50.81
2022-09-07T23:58:20.984Z,50.84
